This is the latest recevied weather packets stored in our database for station/object OK1HOL-13. If no packets are shown the sender has not sent any weather packets the latest 10 day(s).
| Time | Temp. | Humidity | Pressure | Rain* | Wind** | Luminosity | Snow |
|---|---|---|---|---|---|---|---|
| 1778142966 | 17.22° C | 55% | 1011.1 hPa | - | - | 431 W/m² | - |
| 1778142366 | 15.56° C | 58% | 1011 hPa | - | - | 108 W/m² | - |
| 1778141766 | 16.11° C | 57% | 1011 hPa | - | - | 431 W/m² | - |
| 1778141166 | 15.56° C | 61% | 1010.9 hPa | - | - | 76 W/m² | - |
| 1778140566 | 15.56° C | 61% | 1010.9 hPa | - | - | 105 W/m² | - |
| 1778139966 | 15.56° C | 62% | 1010.9 hPa | - | - | 139 W/m² | - |
| 1778139366 | 15° C | 64% | 1010.8 hPa | - | - | 149 W/m² | - |
| 1778138766 | 15° C | 64% | 1010.8 hPa | - | - | 135 W/m² | - |
| 1778138166 | 15° C | 64% | 1010.6 hPa | - | - | 112 W/m² | - |
| 1778137566 | 15° C | 64% | 1010.5 hPa | - | - | 130 W/m² | - |
| 1778136966 | 15° C | 66% | 1010.5 hPa | - | - | 141 W/m² | - |
| 1778136366 | 15° C | 68% | 1010.3 hPa | - | - | 119 W/m² | - |
| 1778135766 | 14.44° C | 71% | 1010.3 hPa | - | - | 110 W/m² | - |
| 1778135166 | 14.44° C | 74% | 1010.2 hPa | - | - | 72 W/m² | - |
| 1778134566 | 14.44° C | 75% | 1010.1 hPa | - | - | 98 W/m² | - |
| 1778133966 | 13.89° C | 77% | 1010.1 hPa | - | - | 78 W/m² | - |
| 1778133366 | 13.33° C | 78% | 1010 hPa | - | - | 44 W/m² | - |
| 1778132766 | 13.33° C | 78% | 1009.9 hPa | - | - | 50 W/m² | - |
| 1778132166 | 12.78° C | 79% | 1009.8 hPa | - | - | 44 W/m² | - |
| 1778131566 | 12.78° C | 79% | 1009.8 hPa | - | - | 41 W/m² | - |
| 1778130966 | 12.78° C | 79% | 1009.7 hPa | - | - | 34 W/m² | - |
| 1778130366 | 12.78° C | 79% | 1009.6 hPa | - | - | 26 W/m² | - |
| 1778129766 | 12.78° C | 80% | 1009.5 hPa | - | - | 26 W/m² | - |
| 1778129166 | 12.78° C | 80% | 1009.3 hPa | - | - | 27 W/m² | - |
| 1778128566 | 12.22° C | 81% | 1009.3 hPa | - | - | 24 W/m² | - |
* Rain since midnight (hover to see other rain measurements)
** Current wind speed in m/s (hover to see current wind gust speed)